Evangeline, Louisiana
Current Conditions -  °F | °C
As of 6:10 PM on Sunday 25 Jan 2015 (Local Time) from K3R7 Reporting Station
Clear Clear  
Wind Chill: 58°   Ceiling: Unl
Heat Index: 58°   Visibility: 10mi
Dew Point: 46°   Wind: 5mph
Humidity: 62%   Direction: 260°W
Pressure: 29.93"   Gusts: NA
Location:  30.26°N, 92.57°W
Report Text: K3R7 260010Z AUTO 26004KT 10SM CLR 15/08 A2993 RMK AO2 T01460075
Loading
Personal Weather Stations






























Interactive Weather Map New forecast layout! Learn more

10-Day Weather Forecast

Advertisements
Track Severe Weather on mobile